YWDR weather

CLOSED Winderadeen ALA
New South Wales, Australia

Public forecast

Using degrees Celsius for public forecast. Weather courtesy of forecast.io.

METAR (pilot weather report)

Closest report is Canberra International Airport, 24.5 nm (45.4 km) SSW. Retrieved 2019/03/25 14:30 UTC (0 seconds ago):

YSCB 251430Z AUTO 28013KT 9999 // NCD 14/03 Q1014 RF00.0/000.0

TAF (pilot weather forecast)

Closest forecast is Canberra International Airport, 24.5 nm (45.4 km) SSW. Retrieved 2019/03/25 12:00 UTC (2 hours ago):

TAF YSCB 251118Z 2512/2612 30014KT CAVOK FM260000 28010KT CAVOK BECMG 2610/2612 06005KT CAVOK